Time;durP1;ratioP1;P1;durP2;ratioP2;P2;SDS_P1;SDS_P2;PMS_P1;PMS_P2;Temp;Humidity;BMP_temperature;BMP_pressure;BME280_temperature;BME280_humidity;BME280_pressure;Samples;Min_cycle;Max_cycle;Signal;HPM_P1;HPM_P2
2022/09/21 00:02:23;;;;;;;1.45;0.25;;;10.70;99.90;;;;;;6184368;23;20005;-83
2022/09/21 00:05:39;;;;;;;2.65;0.30;;;10.70;99.90;;;;;;6161962;23;20009;-83
2022/09/21 00:12:47;;;;;;;1.83;0.40;;;10.70;99.90;;;;;;6203384;23;20005;-82
2022/09/21 00:15:51;;;;;;;2.20;0.20;;;10.70;99.90;;;;;;6183686;23;20009;-82
2022/09/21 00:18:42;;;;;;;2.15;0.30;;;10.70;99.90;;;;;;6180758;23;20005;-82
2022/09/21 00:21:24;;;;;;;1.45;0.30;;;10.70;99.90;;;;;;6180479;23;20001;-85
2022/09/21 00:23:59;;;;;;;0.70;0.20;;;10.70;99.90;;;;;;6178225;23;20008;-83
2022/09/21 00:26:39;;;;;;;2.28;0.38;;;10.70;99.90;;;;;;6171448;23;20012;-83
2022/09/21 00:29:15;;;;;;;1.65;0.30;;;10.70;99.90;;;;;;6180225;23;20011;-83
2022/09/21 00:32:05;;;;;;;1.85;0.20;;;10.70;99.90;;;;;;6152072;23;20005;-83
2022/09/21 00:34:40;;;;;;;1.23;0.30;;;10.70;99.90;;;;;;6154789;23;20013;-82
2022/09/21 00:40:46;;;;;;;1.85;0.40;;;10.70;99.90;;;;;;6180277;23;19993;-86
2022/09/21 00:43:19;;;;;;;2.00;0.30;;;10.70;99.90;;;;;;6196060;23;20040;-82
2022/09/21 00:45:58;;;;;;;2.15;0.30;;;10.70;99.90;;;;;;6158689;23;20021;-82
2022/09/21 00:48:32;;;;;;;2.65;0.30;;;10.70;99.90;;;;;;6180555;23;20009;-82
2022/09/21 00:51:18;;;;;;;2.75;0.30;;;10.60;99.90;;;;;;6182376;23;20009;-84
2022/09/21 00:54:15;;;;;;;1.80;0.30;;;10.60;99.90;;;;;;6178683;23;20009;-82
2022/09/21 00:57:22;;;;;;;1.73;0.30;;;10.60;99.90;;;;;;6171394;23;20017;-82
2022/09/21 01:00:22;;;;;;;2.83;0.50;;;10.50;99.90;;;;;;6181377;23;20005;-81
2022/09/21 01:03:00;;;;;;;1.63;0.20;;;10.50;99.90;;;;;;6177972;23;20017;-83
2022/09/21 01:09:48;;;;;;;2.50;0.25;;;10.50;99.90;;;;;;6203413;23;20005;-82
2022/09/21 01:12:57;;;;;;;1.40;0.30;;;10.40;99.90;;;;;;6180147;23;20009;-82
2022/09/21 01:16:29;;;;;;;1.50;0.20;;;10.40;99.90;;;;;;6144215;23;20005;-83
2022/09/21 01:20:07;;;;;;;2.42;0.38;;;10.40;99.90;;;;;;6168040;23;20023;-83
2022/09/21 01:23:04;;;;;;;1.42;0.30;;;10.40;99.90;;;;;;6178644;23;20005;-82
2022/09/21 01:25:56;;;;;;;1.27;0.20;;;10.30;99.90;;;;;;6179091;23;20009;-82
2022/09/21 01:28:42;;;;;;;1.88;0.30;;;10.30;99.90;;;;;;6155345;23;20005;-82
2022/09/21 01:31:39;;;;;;;1.92;0.60;;;10.30;99.90;;;;;;6177862;23;20009;-82
2022/09/21 01:34:32;;;;;;;3.28;0.22;;;10.30;99.90;;;;;;6161993;23;20013;-82
2022/09/21 01:37:19;;;;;;;1.83;0.28;;;10.20;99.90;;;;;;6137919;23;20028;-83
2022/09/21 01:39:52;;;;;;;1.52;0.25;;;10.20;99.90;;;;;;6198108;23;20616;-81
2022/09/21 01:42:26;;;;;;;2.50;0.32;;;10.20;99.90;;;;;;6165806;23;20012;-82
2022/09/21 01:45:02;;;;;;;2.75;0.20;;;10.10;99.90;;;;;;6142292;23;20005;-80
2022/09/21 01:47:33;;;;;;;1.40;0.50;;;10.10;99.90;;;;;;6200665;23;20016;-82
2022/09/21 01:50:33;;;;;;;1.85;0.30;;;10.10;99.90;;;;;;6145980;23;20340;-82
2022/09/21 01:53:52;;;;;;;1.02;0.28;;;10.10;99.90;;;;;;6144907;23;20009;-81
2022/09/21 01:56:32;;;;;;;3.38;0.40;;;10.00;99.90;;;;;;6123120;23;20028;-82
2022/09/21 01:59:07;;;;;;;2.90;0.40;;;9.90;99.90;;;;;;6144851;23;20348;-82
2022/09/21 02:01:44;;;;;;;1.35;0.30;;;9.80;99.90;;;;;;6217012;23;20008;-82
2022/09/21 02:04:16;;;;;;;2.58;0.30;;;9.80;99.90;;;;;;6146169;23;20009;-83
2022/09/21 02:06:49;;;;;;;4.25;0.40;;;9.60;99.90;;;;;;6144406;23;20009;-82
2022/09/21 02:09:26;;;;;;;2.72;0.40;;;9.60;99.90;;;;;;6206130;23;19997;-81
2022/09/21 02:12:02;;;;;;;2.28;0.30;;;9.60;99.90;;;;;;6173219;23;20016;-82
2022/09/21 02:14:49;;;;;;;1.17;0.30;;;9.50;99.90;;;;;;6151013;23;20009;-83
2022/09/21 02:18:12;;;;;;;2.92;0.40;;;9.40;99.90;;;;;;6150422;23;20005;-82
2022/09/21 02:20:50;;;;;;;2.55;0.50;;;9.40;99.90;;;;;;6174881;23;20020;-82
2022/09/21 02:23:31;;;;;;;2.08;0.50;;;9.30;99.90;;;;;;6185210;23;20003;-83
2022/09/21 02:26:20;;;;;;;1.37;0.20;;;9.30;99.90;;;;;;6180945;23;20009;-81
2022/09/21 02:29:05;;;;;;;1.63;0.40;;;9.30;99.90;;;;;;6140416;23;20008;-81
2022/09/21 02:31:51;;;;;;;2.00;0.40;;;9.20;99.90;;;;;;6141338;23;20009;-81
2022/09/21 02:37:36;;;;;;;3.57;0.40;;;9.20;99.90;;;;;;6201673;23;20344;-82
2022/09/21 02:40:52;;;;;;;2.03;0.30;;;9.10;99.90;;;;;;6179088;23;20233;-81
2022/09/21 02:44:06;;;;;;;1.70;0.30;;;9.10;99.90;;;;;;6156943;23;20009;-81
2022/09/21 02:47:27;;;;;;;1.57;0.40;;;9.10;99.90;;;;;;6170935;23;20036;-81
2022/09/21 02:50:25;;;;;;;2.17;0.20;;;9.00;99.90;;;;;;6144309;23;20001;-81
2022/09/21 02:53:07;;;;;;;2.75;0.35;;;9.00;99.90;;;;;;6168382;23;20011;-81
2022/09/21 02:55:52;;;;;;;4.77;0.30;;;9.00;99.90;;;;;;6143306;23;20009;-81
2022/09/21 02:58:47;;;;;;;2.40;0.32;;;9.00;99.90;;;;;;6148017;23;20244;-81
2022/09/21 03:01:20;;;;;;;1.08;0.22;;;9.00;99.90;;;;;;6144783;23;20015;-81
2022/09/21 03:04:14;;;;;;;0.85;0.43;;;9.00;99.90;;;;;;6146149;23;20009;-81
2022/09/21 03:07:05;;;;;;;1.88;0.20;;;9.00;99.90;;;;;;6212170;23;20318;-82
2022/09/21 03:09:34;;;;;;;3.47;0.20;;;9.00;99.90;;;;;;6202049;23;20007;-82
2022/09/21 03:12:03;;;;;;;3.28;0.20;;;9.00;99.90;;;;;;6171314;23;20016;-82
2022/09/21 03:14:46;;;;;;;4.10;0.30;;;8.90;99.90;;;;;;6169357;23;20008;-83
2022/09/21 03:17:24;;;;;;;2.72;0.20;;;8.90;99.90;;;;;;6186701;23;20005;-83
2022/09/21 03:19:55;;;;;;;1.83;0.20;;;8.90;99.90;;;;;;6154716;23;20001;-82
2022/09/21 03:22:33;;;;;;;1.73;0.30;;;8.90;99.90;;;;;;6179806;23;20005;-82
2022/09/21 03:25:03;;;;;;;1.65;0.30;;;8.90;99.90;;;;;;6183446;23;20009;-82
2022/09/21 03:27:33;;;;;;;1.60;0.20;;;8.90;99.90;;;;;;6178338;23;20015;-82
2022/09/21 03:30:09;;;;;;;2.25;0.20;;;8.80;99.90;;;;;;6176689;23;20005;-83
2022/09/21 03:32:50;;;;;;;0.88;0.30;;;8.80;99.90;;;;;;6153072;23;20016;-83
2022/09/21 03:35:24;;;;;;;1.85;0.28;;;8.70;99.90;;;;;;6176222;23;20097;-82
2022/09/21 03:37:54;;;;;;;2.15;0.20;;;8.70;99.90;;;;;;6174669;23;20007;-82
2022/09/21 03:40:27;;;;;;;2.28;0.30;;;8.70;99.90;;;;;;6177007;23;20012;-82
2022/09/21 03:42:57;;;;;;;;;;;8.70;99.90;;;;;;6179780;23;20001;-81
2022/09/21 03:45:26;;;;;;;1.30;0.22;;;8.70;99.90;;;;;;6178360;23;19899;-82
2022/09/21 03:48:09;;;;;;;2.63;0.30;;;8.60;99.90;;;;;;6214344;23;20011;-81
2022/09/21 03:50:41;;;;;;;2.00;0.50;;;8.60;99.90;;;;;;6178299;23;20015;-81
2022/09/21 03:53:20;;;;;;;0.98;0.20;;;8.60;99.90;;;;;;6179198;23;20027;-81
2022/09/21 03:55:57;;;;;;;2.20;0.20;;;8.50;99.90;;;;;;6152542;23;20065;-82
2022/09/21 03:58:24;;;;;;;1.08;0.30;;;8.50;99.90;;;;;;6150255;23;20449;-81
2022/09/21 04:01:03;;;;;;;3.22;0.40;;;8.50;99.90;;;;;;6154604;23;20008;-81
2022/09/21 04:03:29;;;;;;;1.65;0.30;;;8.50;99.90;;;;;;6178216;23;20015;-82
2022/09/21 04:06:07;;;;;;;3.15;0.30;;;8.40;99.90;;;;;;6177947;23;20142;-82
2022/09/21 04:08:36;;;;;;;1.95;0.20;;;8.40;99.90;;;;;;6178986;23;20013;-82
2022/09/21 04:11:32;;;;;;;1.88;0.30;;;8.40;99.90;;;;;;6179210;23;20009;-81
2022/09/21 04:14:18;;;;;;;1.83;0.40;;;8.40;99.90;;;;;;6141853;23;20009;-83
2022/09/21 04:16:57;;;;;;;2.80;0.22;;;8.40;99.90;;;;;;6153723;23;20023;-81
2022/09/21 04:19:26;;;;;;;;;;;8.40;99.90;;;;;;6149463;23;20001;-81
2022/09/21 04:21:56;;;;;;;2.00;0.50;;;8.30;99.90;;;;;;6177840;23;20223;-82
2022/09/21 04:24:33;;;;;;;2.33;0.30;;;8.30;99.90;;;;;;6180041;23;20005;-82
2022/09/21 04:27:03;;;;;;;2.40;0.20;;;8.30;99.90;;;;;;6178372;23;20008;-81
2022/09/21 04:29:55;;;;;;;3.10;0.30;;;8.30;99.90;;;;;;6184443;23;20016;-82
2022/09/21 04:32:30;;;;;;;2.72;0.30;;;8.20;99.90;;;;;;6178117;23;20009;-82
2022/09/21 04:34:59;;;;;;;1.70;0.43;;;8.20;99.90;;;;;;6176433;23;20017;-80
2022/09/21 04:37:26;;;;;;;3.15;0.50;;;8.20;99.90;;;;;;6204436;23;20001;-82
2022/09/21 04:39:55;;;;;;;3.88;0.50;;;8.20;99.90;;;;;;6178613;23;20290;-82
2022/09/21 04:42:41;;;;;;;1.40;0.40;;;8.20;99.90;;;;;;6200383;23;20001;-83
2022/09/21 04:45:08;;;;;;;4.55;0.40;;;8.10;99.90;;;;;;6141339;23;20005;-80
2022/09/21 04:48:06;;;;;;;4.47;0.57;;;8.10;99.90;;;;;;6204604;23;19997;-83
2022/09/21 04:50:37;;;;;;;4.50;1.60;;;8.10;99.90;;;;;;6153433;23;20019;-82
2022/09/21 04:53:10;;;;;;;4.85;2.17;;;8.00;99.90;;;;;;6190131;23;20001;-83
2022/09/21 04:55:50;;;;;;;6.45;2.15;;;8.00;99.90;;;;;;6203755;23;20019;-83
2022/09/21 04:58:19;;;;;;;3.92;1.45;;;8.00;99.90;;;;;;6152980;23;20002;-82
2022/09/21 05:00:49;;;;;;;7.90;1.40;;;7.90;99.90;;;;;;6153994;23;20009;-81
2022/09/21 05:03:21;;;;;;;5.18;2.42;;;7.90;99.90;;;;;;6177667;23;20005;-82
2022/09/21 05:05:55;;;;;;;2.92;1.00;;;7.90;99.90;;;;;;6153211;23;20024;-82
2022/09/21 05:11:19;;;;;;;2.38;0.50;;;7.90;99.90;;;;;;6213232;23;20005;-82
2022/09/21 05:13:48;;;;;;;1.83;0.50;;;7.90;99.90;;;;;;6177121;23;20083;-82
2022/09/21 05:16:18;;;;;;;4.70;0.60;;;7.80;99.90;;;;;;6178739;23;20007;-82
2022/09/21 05:18:46;;;;;;;2.53;0.50;;;7.80;99.90;;;;;;6178761;23;20023;-82
2022/09/21 05:21:37;;;;;;;3.85;0.40;;;7.80;99.90;;;;;;6151832;23;20012;-82
2022/09/21 05:24:47;;;;;;;3.05;0.55;;;7.80;99.90;;;;;;6178540;23;20020;-82
2022/09/21 05:27:21;;;;;;;3.15;0.32;;;7.80;99.90;;;;;;6186530;23;20360;-82
2022/09/21 05:30:14;;;;;;;1.95;0.30;;;7.70;99.90;;;;;;6180527;23;20425;-82
2022/09/21 05:33:01;;;;;;;1.45;0.30;;;7.70;99.90;;;;;;6155073;23;20009;-83
2022/09/21 05:36:08;;;;;;;;;;;;;;;;;;;;;
2022/09/21 05:39:19;;;;;;;2.60;0.50;;;7.70;99.90;;;;;;6184429;23;20448;-83
2022/09/21 05:50:09;;;;;;;3.22;0.63;;;7.80;99.90;;;;;;6141820;23;20006;-83
2022/09/21 05:54:03;;;;;;;1.83;0.22;;;7.80;99.90;;;;;;6181801;23;20038;-82
2022/09/21 05:57:27;;;;;;;6.07;0.40;;;7.80;99.90;;;;;;6077761;23;20476;-83
2022/09/21 06:00:37;;;;;;;2.75;0.65;;;7.90;99.90;;;;;;6110549;23;20010;-82
2022/09/21 06:03:38;;;;;;;1.83;0.32;;;8.00;99.90;;;;;;6111221;23;20005;-83
2022/09/21 06:06:23;;;;;;;3.55;0.50;;;8.10;99.90;;;;;;6109104;23;20006;-83
2022/09/21 06:09:12;;;;;;;1.15;0.40;;;8.30;99.90;;;;;;6111201;23;20011;-81
2022/09/21 06:12:01;;;;;;;3.30;0.57;;;8.40;99.90;;;;;;6110013;23;20343;-83
2022/09/21 06:15:21;;;;;;;4.70;0.98;;;8.50;99.90;;;;;;6111395;23;20016;-83
2022/09/21 06:21:48;;;;;;;2.63;0.70;;;8.90;99.90;;;;;;6139168;23;20001;-84
2022/09/21 06:24:35;;;;;;;3.22;0.68;;;9.00;99.90;;;;;;6112120;23;20006;-83
2022/09/21 06:31:47;;;;;;;3.03;0.70;;;9.30;99.90;;;;;;6147790;23;20021;-83
2022/09/21 06:35:41;;;;;;;4.22;1.02;;;9.50;99.90;;;;;;6133609;23;20010;-83
2022/09/21 06:39:25;;;;;;;3.92;0.75;;;9.70;99.90;;;;;;5996403;23;20043;-83
2022/09/21 06:43:37;;;;;;;2.88;0.77;;;9.80;99.90;;;;;;6019988;23;20019;-83
2022/09/21 06:46:49;;;;;;;5.65;0.82;;;10.10;99.90;;;;;;6116141;23;20250;-83
2022/09/21 06:57:19;;;;;;;3.25;0.70;;;10.60;99.90;;;;;;6054164;23;20007;-84
2022/09/21 07:00:32;;;;;;;2.50;0.95;;;10.80;99.90;;;;;;6071856;23;20005;-84
2022/09/21 07:03:45;;;;;;;3.47;1.13;;;10.90;99.90;;;;;;6139789;23;20333;-83
2022/09/21 07:06:56;;;;;;;2.97;1.23;;;11.00;99.90;;;;;;6098207;23;20043;-82
2022/09/21 07:10:08;;;;;;;;;;;11.10;99.90;;;;;;6120041;23;20028;-82
2022/09/21 07:12:46;;;;;;;6.35;2.95;;;11.20;99.90;;;;;;6126657;23;19908;-81
2022/09/21 07:15:31;;;;;;;5.70;1.00;;;11.30;99.90;;;;;;6157964;23;20013;-81
2022/09/21 07:18:36;;;;;;;4.50;0.80;;;11.40;99.90;;;;;;6098001;23;20014;-80
2022/09/21 07:21:54;;;;;;;3.45;0.95;;;11.60;99.90;;;;;;6149088;23;20007;-83
2022/09/21 07:25:07;;;;;;;4.85;0.90;;;11.70;99.90;;;;;;6144272;23;20006;-80
2022/09/21 07:28:10;;;;;;;3.70;0.93;;;11.80;99.90;;;;;;6099022;23;20337;-80
2022/09/21 07:42:45;;;;;;;5.03;1.00;;;12.30;99.90;;;;;;6129371;23;20009;-79
2022/09/21 07:46:15;;;;;;;2.85;0.85;;;12.40;99.90;;;;;;6106593;23;20013;-79
2022/09/21 07:49:34;;;;;;;4.85;1.10;;;12.50;99.90;;;;;;6108554;23;20009;-81
2022/09/21 07:53:29;;;;;;;3.63;0.98;;;12.70;99.90;;;;;;6107714;23;20006;-79
2022/09/21 08:02:53;;;;;;;3.97;0.90;;;13.00;99.90;;;;;;6214152;22;20024;-79
2022/09/21 08:06:30;;;;;;;;;;;;;;;;;;;;;
2022/09/21 08:17:14;;;;;;;2.97;0.82;;;13.60;99.90;;;;;;6215691;23;20024;-79
2022/09/21 08:20:31;;;;;;;6.18;1.20;;;13.80;99.90;;;;;;6163977;23;20344;-79
2022/09/21 08:23:04;;;;;;;4.43;0.93;;;13.90;99.90;;;;;;6136093;23;20329;-79
2022/09/21 08:26:06;;;;;;;4.43;1.15;;;14.00;99.90;;;;;;6155315;23;20015;-79
2022/09/21 08:29:40;;;;;;;3.67;1.20;;;14.10;99.90;;;;;;6158968;23;20005;-80
2022/09/21 08:33:16;;;;;;;5.72;1.63;;;14.30;99.90;;;;;;6174402;23;20356;-80
2022/09/21 08:36:40;;;;;;;;;;;;;;;;;;;;;
2022/09/21 09:10:30;;;;;;;4.55;1.95;;;15.60;99.90;;;;;;6169911;23;20035;-80
2022/09/21 09:13:54;;;;;;;7.00;2.42;;;15.80;99.90;;;;;;6199758;23;20057;-81
2022/09/21 09:17:22;;;;;;;7.03;2.38;;;15.90;99.90;;;;;;6156034;23;20031;-82
2022/09/21 09:36:39;;;;;;;5.38;1.20;;;16.60;99.90;;;;;;6136033;23;20020;-80
2022/09/21 09:44:26;;;;;;;5.85;0.82;;;16.80;99.90;;;;;;6041399;23;20506;-82
2022/09/21 09:51:13;;;;;;;2.88;0.43;;;17.10;99.90;;;;;;6041187;23;20011;-81
2022/09/21 09:54:23;;;;;;;2.80;0.50;;;17.30;99.90;;;;;;5994030;23;20011;-81
2022/09/21 10:02:11;;;;;;;4.65;0.50;;;17.50;99.90;;;;;;5963762;24;20008;-81
2022/09/21 10:18:32;;;;;;;3.65;0.40;;;19.00;99.90;;;;;;6049199;23;20025;-80
2022/09/21 10:21:05;;;;;;;4.40;0.50;;;19.40;99.90;;;;;;6061523;23;20444;-79
2022/09/21 10:23:31;;;;;;;;;;;19.60;99.90;;;;;;6163648;23;20017;-80
2022/09/21 10:25:58;;;;;;;2.47;0.30;;;19.90;99.90;;;;;;6163292;23;19908;-79
2022/09/21 10:28:25;;;;;;;4.75;0.50;;;20.30;99.90;;;;;;6164787;23;20009;-82
2022/09/21 10:31:23;;;;;;;3.70;0.52;;;20.70;99.90;;;;;;6189902;23;20031;-80
2022/09/21 10:34:11;;;;;;;3.70;0.65;;;21.20;99.70;;;;;;6164245;23;20005;-82
2022/09/21 10:37:17;;;;;;;3.50;0.60;;;21.60;98.50;;;;;;6192096;23;20009;-80
2022/09/21 10:40:45;;;;;;;;;;;;;;;;;;;;;
2022/09/21 10:43:57;;;;;;;4.78;0.70;;;22.60;96.20;;;;;;6189104;23;20017;-81
2022/09/21 10:46:59;;;;;;;3.85;0.60;;;23.00;94.80;;;;;;6156113;23;20202;-81
2022/09/21 10:50:01;;;;;;;5.43;0.60;;;23.50;92.10;;;;;;6143591;23;20016;-81
2022/09/21 10:52:38;;;;;;;3.47;0.40;;;23.90;90.90;;;;;;6165270;23;20016;-81
2022/09/21 10:55:05;;;;;;;2.80;0.40;;;24.40;90.30;;;;;;6141509;23;20009;-81
2022/09/21 10:57:33;;;;;;;2.90;0.50;;;24.90;89.00;;;;;;6164283;23;20015;-80
2022/09/21 11:00:28;;;;;;;4.50;0.68;;;25.50;85.30;;;;;;6164993;23;20468;-80
2022/09/21 11:02:55;;;;;;;1.58;0.40;;;26.00;80.60;;;;;;6165323;23;20011;-82
2022/09/21 11:05:23;;;;;;;1.83;0.43;;;26.20;78.30;;;;;;6191414;23;20007;-80
2022/09/21 11:07:59;;;;;;;1.23;0.32;;;26.10;76.30;;;;;;6191031;23;20001;-80
2022/09/21 11:10:28;;;;;;;2.15;0.65;;;25.50;75.00;;;;;;6113527;23;20005;-81
2022/09/21 11:13:22;;;;;;;2.95;0.60;;;25.10;75.50;;;;;;6136441;23;20009;-84
2022/09/21 11:16:12;;;;;;;2.35;0.40;;;25.00;73.60;;;;;;6114314;23;20013;-84
2022/09/21 11:18:56;;;;;;;2.25;0.40;;;25.50;71.80;;;;;;6160166;23;20005;-83
2022/09/21 11:21:35;;;;;;;3.40;0.40;;;25.70;72.60;;;;;;6172617;23;20001;-85
2022/09/21 11:24:20;;;;;;;2.75;0.50;;;25.70;70.60;;;;;;6188104;23;20008;-85
2022/09/21 11:26:58;;;;;;;2.30;0.50;;;25.50;71.30;;;;;;6134994;23;20020;-84
2022/09/21 11:34:08;;;;;;;2.22;0.30;;;24.80;69.50;;;;;;6198459;23;20005;-84
2022/09/21 11:36:57;;;;;;;1.95;0.45;;;25.00;68.70;;;;;;6169642;23;20027;-83
2022/09/21 11:39:50;;;;;;;3.45;0.50;;;24.50;70.00;;;;;;6146030;23;20009;-82
2022/09/21 11:42:23;;;;;;;2.83;0.30;;;23.80;67.70;;;;;;6177496;23;20004;-84
2022/09/21 11:44:57;;;;;;;4.65;0.30;;;23.00;69.70;;;;;;6221687;23;20000;-84
2022/09/21 11:47:59;;;;;;;2.83;0.30;;;22.40;71.60;;;;;;6177222;23;20009;-84
2022/09/21 11:50:55;;;;;;;3.13;0.30;;;21.90;72.90;;;;;;6116888;23;20009;-83
2022/09/21 11:53:56;;;;;;;2.72;0.40;;;21.50;74.20;;;;;;6114339;23;20005;-81
2022/09/21 11:56:54;;;;;;;1.42;0.30;;;21.30;74.60;;;;;;6171027;23;20005;-83
2022/09/21 11:59:45;;;;;;;1.63;0.30;;;21.00;75.50;;;;;;6163750;23;20005;-83
2022/09/21 12:02:14;;;;;;;3.67;0.30;;;20.70;76.20;;;;;;6173510;23;20023;-82
2022/09/21 12:04:52;;;;;;;4.00;0.40;;;20.40;76.80;;;;;;6138603;23;20005;-82
2022/09/21 12:07:56;;;;;;;2.13;0.50;;;20.20;77.30;;;;;;6138512;23;20398;-82
2022/09/21 12:10:53;;;;;;;3.60;0.50;;;20.00;78.30;;;;;;6114476;23;20008;-82
2022/09/21 12:13:36;;;;;;;2.42;0.38;;;19.90;78.70;;;;;;6115413;23;20005;-82
2022/09/21 12:16:20;;;;;;;4.32;0.90;;;19.70;78.70;;;;;;6140042;23;20015;-80
2022/09/21 12:19:31;;;;;;;5.00;2.17;;;19.60;78.50;;;;;;6116090;23;20005;-81
2022/09/21 12:22:18;;;;;;;3.83;1.20;;;19.50;78.30;;;;;;6148848;23;20012;-81
2022/09/21 12:25:01;;;;;;;2.67;0.40;;;19.40;78.70;;;;;;6136712;23;20001;-82
2022/09/21 12:27:46;;;;;;;4.13;0.45;;;19.30;79.30;;;;;;6118778;23;20104;-82
2022/09/21 12:30:32;;;;;;;1.65;0.40;;;19.40;79.00;;;;;;6118267;23;20009;-82
2022/09/21 12:33:20;;;;;;;2.20;0.28;;;19.50;80.00;;;;;;6116777;23;20005;-82
2022/09/21 12:36:16;;;;;;;1.58;0.30;;;19.60;80.20;;;;;;6115747;23;20013;-82
2022/09/21 12:39:02;;;;;;;1.90;0.35;;;20.70;79.30;;;;;;6145933;23;20035;-82
2022/09/21 12:41:50;;;;;;;1.63;0.30;;;22.90;75.90;;;;;;6145174;23;20001;-83
2022/09/21 12:44:50;;;;;;;3.17;0.50;;;24.50;72.70;;;;;;6121205;23;20005;-82
2022/09/21 12:47:57;;;;;;;2.40;0.40;;;24.60;68.60;;;;;;6119133;23;20005;-80
2022/09/21 12:50:50;;;;;;;2.20;0.30;;;23.70;70.00;;;;;;6120195;23;20020;-82
2022/09/21 12:53:29;;;;;;;2.15;0.40;;;22.70;71.30;;;;;;6142142;23;20024;-82
2022/09/21 12:56:39;;;;;;;3.10;1.15;;;21.90;73.00;;;;;;6118852;23;20005;-82
2022/09/21 12:59:24;;;;;;;3.65;1.50;;;21.20;74.50;;;;;;6087551;23;20017;-82
2022/09/21 13:01:57;;;;;;;4.57;1.13;;;20.70;74.80;;;;;;6121979;23;20013;-82
2022/09/21 13:04:48;;;;;;;1.45;0.60;;;20.20;75.60;;;;;;6122503;23;20020;-82
2022/09/21 13:07:56;;;;;;;2.55;0.40;;;20.00;76.50;;;;;;6122322;23;20011;-82
2022/09/21 13:10:56;;;;;;;2.08;0.20;;;19.60;77.50;;;;;;6120423;23;20012;-82
2022/09/21 13:13:36;;;;;;;2.53;0.30;;;19.30;77.40;;;;;;6133369;22;20081;-83
2022/09/21 13:16:23;;;;;;;2.97;0.30;;;19.10;77.50;;;;;;6136979;22;20045;-82
2022/09/21 13:19:22;;;;;;;1.45;0.20;;;18.90;77.90;;;;;;6161855;22;20056;-84
2022/09/21 13:22:14;;;;;;;1.40;0.20;;;18.90;78.30;;;;;;6162192;22;20057;-82
2022/09/21 13:24:43;;;;;;;4.90;0.60;;;20.70;77.30;;;;;;6121006;23;20009;-82
2022/09/21 13:27:12;;;;;;;3.03;1.10;;;22.60;71.20;;;;;;6139838;23;20009;-82
2022/09/21 13:29:40;;;;;;;3.20;0.60;;;24.20;70.10;;;;;;6116036;23;20019;-82
2022/09/21 13:32:13;;;;;;;4.55;1.95;;;25.80;68.40;;;;;;6116051;23;20406;-82
2022/09/21 13:34:44;;;;;;;1.88;0.52;;;27.40;65.50;;;;;;6162935;23;20023;-82
2022/09/21 13:37:19;;;;;;;2.63;0.50;;;28.50;63.10;;;;;;6144404;23;20013;-81
2022/09/21 13:40:00;;;;;;;1.70;0.40;;;29.20;59.40;;;;;;6173066;23;20096;-82
2022/09/21 13:42:33;;;;;;;1.58;0.30;;;29.60;58.40;;;;;;6138416;23;20001;-80
2022/09/21 13:45:12;;;;;;;1.35;0.30;;;29.20;55.40;;;;;;6138961;23;20001;-81
2022/09/21 13:47:44;;;;;;;0.85;0.30;;;27.80;57.30;;;;;;6114454;23;20028;-82
2022/09/21 13:50:17;;;;;;;1.33;0.30;;;26.50;58.50;;;;;;6114636;23;20016;-84
2022/09/21 13:52:55;;;;;;;2.35;0.35;;;25.40;58.50;;;;;;6118128;23;20336;-83
2022/09/21 13:55:29;;;;;;;0.95;0.30;;;24.30;60.20;;;;;;6114244;23;20005;-82
2022/09/21 13:58:05;;;;;;;1.15;0.28;;;23.60;61.70;;;;;;6116362;23;20428;-83
2022/09/21 14:00:55;;;;;;;1.33;0.30;;;23.00;62.50;;;;;;6117906;23;20441;-82
2022/09/21 14:03:36;;;;;;;1.38;0.30;;;22.50;62.90;;;;;;6116635;23;20007;-82
2022/09/21 14:06:31;;;;;;;2.35;0.30;;;22.10;63.10;;;;;;6116670;23;20005;-82
2022/09/21 14:09:06;;;;;;;1.92;0.20;;;21.70;62.60;;;;;;6139049;23;20009;-82
2022/09/21 14:11:38;;;;;;;0.57;0.30;;;21.40;63.50;;;;;;6117162;23;20043;-82
2022/09/21 14:14:17;;;;;;;2.15;0.40;;;21.30;64.40;;;;;;6118865;23;20009;-83
2022/09/21 14:17:02;;;;;;;1.95;0.20;;;21.20;64.70;;;;;;6120171;23;20007;-82
2022/09/21 14:19:38;;;;;;;1.00;0.20;;;21.10;65.30;;;;;;6143235;23;20005;-82
2022/09/21 14:22:10;;;;;;;1.75;0.30;;;20.90;65.10;;;;;;6142272;23;20044;-81
2022/09/21 14:24:44;;;;;;;;;;;20.80;65.60;;;;;;6118680;23;20101;-82
2022/09/21 14:27:42;;;;;;;1.33;0.20;;;20.70;66.00;;;;;;6143453;23;19904;-82
2022/09/21 14:30:19;;;;;;;1.45;0.30;;;20.70;66.70;;;;;;6119392;23;20005;-82
2022/09/21 14:33:05;;;;;;;2.85;0.30;;;20.60;65.80;;;;;;6121551;23;20027;-81
2022/09/21 14:35:46;;;;;;;1.95;0.30;;;20.50;66.30;;;;;;6122938;23;20009;-82
2022/09/21 14:38:28;;;;;;;0.85;0.20;;;20.40;67.10;;;;;;6120420;23;20449;-82
2022/09/21 14:41:07;;;;;;;3.25;0.30;;;20.40;66.70;;;;;;6146269;23;20013;-82
2022/09/21 14:43:43;;;;;;;1.83;0.30;;;20.40;66.70;;;;;;6126577;23;20435;-82
2022/09/21 14:46:34;;;;;;;1.83;0.35;;;20.40;67.40;;;;;;6126797;23;20005;-82
2022/09/21 14:49:30;;;;;;;1.25;0.30;;;20.40;66.50;;;;;;6152079;23;20019;-82
2022/09/21 14:52:13;;;;;;;2.40;0.30;;;20.30;66.20;;;;;;6151496;23;20013;-82
2022/09/21 14:55:01;;;;;;;1.27;0.30;;;20.20;67.10;;;;;;6156706;23;20013;-83
2022/09/21 14:58:11;;;;;;;2.72;0.30;;;20.20;67.40;;;;;;6144477;23;20024;-81
2022/09/21 15:00:43;;;;;;;2.47;0.20;;;20.20;67.60;;;;;;6115831;23;20005;-82
2022/09/21 15:03:37;;;;;;;;;;;20.10;68.40;;;;;;6116390;23;20337;-82
2022/09/21 15:12:45;;;;;;;1.95;0.20;;;19.90;69.80;;;;;;6138699;23;20013;-82
2022/09/21 15:15:33;;;;;;;1.50;0.20;;;19.80;69.80;;;;;;6138159;23;20016;-82
2022/09/21 15:18:00;;;;;;;1.45;0.20;;;19.70;69.90;;;;;;6115269;23;20005;-83
2022/09/21 15:21:04;;;;;;;2.55;0.20;;;19.60;69.40;;;;;;6144477;23;20001;-82
2022/09/21 15:23:46;;;;;;;1.92;0.30;;;19.40;69.80;;;;;;6138771;23;20005;-82
2022/09/21 15:26:19;;;;;;;3.60;0.43;;;19.30;70.00;;;;;;6118075;23;20016;-83
2022/09/21 15:28:52;;;;;;;2.08;0.32;;;19.10;70.00;;;;;;6120385;23;20015;-81
2022/09/21 15:31:19;;;;;;;1.95;0.30;;;19.00;69.80;;;;;;6153389;23;20005;-81
2022/09/21 15:33:47;;;;;;;2.15;0.30;;;18.90;70.30;;;;;;6119943;23;20009;-81
2022/09/21 15:36:38;;;;;;;2.55;0.25;;;18.70;70.50;;;;;;6123316;23;20441;-82
2022/09/21 15:39:34;;;;;;;1.45;0.30;;;18.60;70.90;;;;;;6167880;23;20401;-82
2022/09/21 15:42:11;;;;;;;1.13;0.30;;;18.50;70.50;;;;;;6179649;23;20005;-80
2022/09/21 15:44:47;;;;;;;1.58;0.30;;;18.50;70.60;;;;;;6144937;23;20011;-81
2022/09/21 15:47:25;;;;;;;1.92;0.30;;;18.50;70.00;;;;;;6143199;23;20008;-82
2022/09/21 15:49:57;;;;;;;0.77;0.20;;;18.30;70.20;;;;;;6144804;23;20425;-82
2022/09/21 15:52:41;;;;;;;1.77;0.30;;;18.20;70.50;;;;;;6157177;23;20013;-82
2022/09/21 15:55:35;;;;;;;2.10;0.47;;;18.20;70.50;;;;;;6155778;23;20020;-84
2022/09/21 15:58:20;;;;;;;2.80;0.98;;;18.00;71.00;;;;;;6144488;23;20023;-84
2022/09/21 16:00:53;;;;;;;1.13;0.30;;;17.90;71.60;;;;;;6120525;23;20015;-84
2022/09/21 16:12:45;;;;;;;1.63;0.20;;;17.70;71.80;;;;;;5977697;24;20488;-84
2022/09/21 16:16:22;;;;;;;2.63;0.40;;;17.60;71.70;;;;;;5960212;24;20121;-83
2022/09/21 16:19:37;;;;;;;1.67;0.30;;;17.50;72.30;;;;;;5965081;24;20008;-81
2022/09/21 16:23:09;;;;;;;0.20;0.10;;;17.40;72.30;;;;;;5973576;23;20326;-81
2022/09/21 16:25:53;;;;;;;1.00;0.20;;;17.30;72.80;;;;;;5971600;23;20006;-81
2022/09/21 16:28:53;;;;;;;0.80;0.20;;;17.10;72.90;;;;;;6120817;23;20015;-81
2022/09/21 16:31:37;;;;;;;0.65;0.25;;;17.00;73.50;;;;;;6121986;23;20013;-80
2022/09/21 16:34:37;;;;;;;1.95;0.30;;;16.90;74.10;;;;;;6146317;23;20349;-81
2022/09/21 16:37:23;;;;;;;2.85;0.30;;;16.80;75.70;;;;;;6118877;23;20008;-81
2022/09/21 16:40:29;;;;;;;4.55;1.20;;;16.70;75.20;;;;;;6174611;23;20007;-83
2022/09/21 16:43:39;;;;;;;3.42;0.90;;;16.60;75.40;;;;;;6164259;23;20001;-82
2022/09/21 16:46:25;;;;;;;1.83;0.60;;;16.50;76.30;;;;;;6123676;23;20009;-82
2022/09/21 17:05:30;;;;;;;1.23;0.20;;;16.00;78.00;;;;;;6078904;23;20021;-85
2022/09/21 17:25:26;;;;;;;1.38;0.30;;;15.20;81.90;;;;;;6156701;23;20011;-82
2022/09/21 17:28:27;;;;;;;2.05;0.30;;;15.10;82.70;;;;;;6139205;23;20009;-82
2022/09/21 17:31:52;;;;;;;1.77;0.40;;;15.00;83.40;;;;;;6144076;23;20012;-82
2022/09/21 17:34:40;;;;;;;0.68;0.30;;;14.80;84.30;;;;;;6116535;23;20001;-81
2022/09/21 20:29:37;;;;;;;1.75;0.43;;;11.00;97.70;;;;;;6231729;22;20017;-84
2022/09/21 20:36:22;;;;;;;1.90;0.60;;;11.00;97.90;;;;;;6210987;23;20019;-83
2022/09/21 20:39:25;;;;;;;1.85;0.52;;;10.90;98.00;;;;;;6187229;23;20047;-84
2022/09/21 20:46:36;;;;;;;2.15;0.50;;;10.90;98.20;;;;;;6187282;23;20017;-85
2022/09/21 20:50:12;;;;;;;2.17;0.55;;;10.80;98.20;;;;;;6183745;23;20023;-84
2022/09/21 20:53:15;;;;;;;1.00;0.30;;;10.80;98.20;;;;;;6147696;23;20011;-84
2022/09/21 21:27:15;;;;;;;6.75;3.55;;;10.50;99.60;;;;;;6090595;23;20004;-83
2022/09/21 21:30:14;;;;;;;5.68;2.42;;;10.40;99.60;;;;;;6199110;23;20000;-82
2022/09/21 21:32:43;;;;;;;3.15;1.40;;;10.40;99.70;;;;;;6175498;23;20004;-81
2022/09/21 21:36:14;;;;;;;;;;;;;;;;;;;;;
2022/09/21 21:54:42;;;;;;;;;;;;;;;;;;;;;
2022/09/21 23:21:15;;;;;;;4.15;0.50;;;9.50;99.90;;;;;;6137774;23;20022;-81